createdAt,value
2023-05-02T00:01:11.605Z,8.71
2023-05-02T00:03:58.035Z,8.50
2023-05-02T00:06:46.470Z,8.45
2023-05-02T00:09:33.133Z,8.57
2023-05-02T00:12:20.114Z,8.54
2023-05-02T00:15:07.507Z,8.48
2023-05-02T00:17:57.010Z,8.58
2023-05-02T00:20:43.761Z,8.75
2023-05-02T00:23:30.421Z,8.70
2023-05-02T00:26:17.008Z,8.53
2023-05-02T00:29:03.676Z,8.16
2023-05-02T00:31:50.055Z,8.31
2023-05-02T00:34:36.737Z,8.15
2023-05-02T00:37:27.472Z,8.10
2023-05-02T00:40:16.958Z,8.01
2023-05-02T00:43:03.337Z,7.96
2023-05-02T00:45:52.557Z,7.89
2023-05-02T00:48:40.051Z,7.45
2023-05-02T00:51:27.335Z,7.72
2023-05-02T00:54:14.577Z,7.68
2023-05-02T00:57:02.423Z,7.71
2023-05-02T00:59:52.847Z,7.70
2023-05-02T01:02:51.314Z,7.70
2023-05-02T01:06:03.931Z,8.06
2023-05-02T01:09:13.175Z,8.24
2023-05-02T01:12:31.268Z,8.02
2023-05-02T01:15:22.319Z,7.73
2023-05-02T01:18:14.713Z,7.59
2023-05-02T01:21:06.653Z,7.58
2023-05-02T01:24:05.499Z,7.45
2023-05-02T01:27:07.584Z,7.40
2023-05-02T01:32:59.192Z,7.29
2023-05-02T01:35:49.636Z,7.31
2023-05-02T01:38:37.541Z,7.27
2023-05-02T01:41:29.029Z,7.17
2023-05-02T01:44:24.186Z,7.17
2023-05-02T01:47:12.200Z,7.11
2023-05-02T01:50:03.024Z,6.84
2023-05-02T01:52:55.328Z,7.14
2023-05-02T01:55:44.619Z,7.13
2023-05-02T01:58:35.984Z,7.13
2023-05-02T02:01:27.411Z,6.87
2023-05-02T02:04:16.731Z,6.91
2023-05-02T02:07:10.927Z,6.99
2023-05-02T02:09:57.641Z,7.10
2023-05-02T02:13:04.675Z,6.70
2023-05-02T02:15:55.483Z,6.76
2023-05-02T02:18:45.766Z,6.57
2023-05-02T02:21:34.362Z,6.82
2023-05-02T02:24:22.880Z,6.90
2023-05-02T02:27:09.312Z,6.84
2023-05-02T02:29:55.560Z,7.24
2023-05-02T02:32:42.101Z,7.12
2023-05-02T02:35:34.085Z,6.97
2023-05-02T02:38:50.733Z,6.94
2023-05-02T02:41:43.419Z,6.85
2023-05-02T02:44:54.218Z,6.90
2023-05-02T02:48:19.225Z,6.94
2023-05-02T02:51:19.727Z,6.86
2023-05-02T02:54:27.022Z,6.89
2023-05-02T02:57:26.738Z,6.90
2023-05-02T03:00:22.224Z,6.81
2023-05-02T03:03:10.786Z,6.87
2023-05-02T03:05:57.528Z,6.82
2023-05-02T03:08:44.904Z,6.66
2023-05-02T03:11:36.798Z,6.91
2023-05-02T03:14:23.606Z,6.94
2023-05-02T03:17:10.661Z,6.93
2023-05-02T03:19:57.641Z,7.04
2023-05-02T03:22:44.366Z,7.02
2023-05-02T03:25:32.148Z,7.02
2023-05-02T03:28:18.759Z,7.12
2023-05-02T03:31:07.934Z,7.24
2023-05-02T03:33:58.549Z,7.28
2023-05-02T03:36:45.454Z,7.30
2023-05-02T03:39:31.844Z,7.45
2023-05-02T03:42:18.182Z,7.57
2023-05-02T03:45:05.266Z,7.60
2023-05-02T03:47:51.804Z,7.85
2023-05-02T03:50:38.140Z,7.83
2023-05-02T03:53:25.372Z,7.97
2023-05-02T03:56:20.255Z,8.07
2023-05-02T03:59:14.963Z,7.97
2023-05-02T04:02:01.525Z,8.23
2023-05-02T04:04:57.211Z,8.18
2023-05-02T04:07:43.869Z,8.21
2023-05-02T04:10:30.744Z,8.21
2023-05-02T04:13:20.334Z,8.26
2023-05-02T04:16:09.413Z,8.38
2023-05-02T04:18:57.327Z,7.95
2023-05-02T04:21:45.575Z,8.51
2023-05-02T04:24:33.367Z,8.49
2023-05-02T04:27:19.910Z,8.45
2023-05-02T04:30:07.358Z,8.53
2023-05-02T04:32:54.084Z,8.31
2023-05-02T04:35:41.258Z,8.48
2023-05-02T04:38:30.259Z,8.59
2023-05-02T04:41:17.480Z,8.26
2023-05-02T04:44:10.632Z,8.54
2023-05-02T04:46:58.351Z,8.53
2023-05-02T04:49:44.531Z,8.55
2023-05-02T04:52:31.337Z,8.61
2023-05-02T04:55:17.814Z,8.54
2023-05-02T04:58:05.009Z,8.74
2023-05-02T05:00:52.683Z,8.78
2023-05-02T05:03:39.025Z,8.90
2023-05-02T05:06:27.149Z,9.09
2023-05-02T05:09:15.102Z,9.29
2023-05-02T05:12:01.980Z,9.34
2023-05-02T05:14:50.663Z,9.45
2023-05-02T05:17:38.171Z,9.34
2023-05-02T05:20:24.923Z,9.61
2023-05-02T05:23:15.192Z,9.67
2023-05-02T05:26:17.494Z,9.75
2023-05-02T05:29:08.296Z,9.76
2023-05-02T05:31:59.861Z,9.73
2023-05-02T05:34:47.105Z,9.72
2023-05-02T05:37:33.730Z,9.95
2023-05-02T05:40:21.517Z,9.97
2023-05-02T05:43:13.475Z,10.09
2023-05-02T05:46:00.371Z,10.11
2023-05-02T05:48:48.001Z,10.27
2023-05-02T05:51:35.551Z,10.37
2023-05-02T05:54:22.244Z,10.49
2023-05-02T05:57:08.496Z,10.63
2023-05-02T05:59:57.329Z,10.81
2023-05-02T06:02:43.864Z,10.69
2023-05-02T06:05:37.132Z,10.83
2023-05-02T06:08:23.717Z,10.92
2023-05-02T06:11:11.590Z,10.77
2023-05-02T06:13:57.975Z,10.58
2023-05-02T06:16:45.047Z,10.76
2023-05-02T06:19:32.012Z,10.93
2023-05-02T06:22:18.429Z,10.67
2023-05-02T06:25:05.310Z,10.99
2023-05-02T06:27:51.804Z,11.04
2023-05-02T06:30:38.245Z,11.07
2023-05-02T06:33:24.845Z,11.30
2023-05-02T06:36:11.039Z,11.35
2023-05-02T06:38:57.634Z,11.40
2023-05-02T06:41:44.318Z,11.46
2023-05-02T06:44:35.616Z,11.29
2023-05-02T06:47:24.296Z,11.77
2023-05-02T06:50:11.566Z,11.74
2023-05-02T06:52:58.109Z,11.78
2023-05-02T06:55:46.310Z,12.09
2023-05-02T06:58:32.842Z,12.08
2023-05-02T07:01:19.154Z,12.10
2023-05-02T07:04:06.194Z,12.05
2023-05-02T07:06:52.663Z,11.46
2023-05-02T07:09:39.259Z,12.18
2023-05-02T07:12:26.315Z,12.46
2023-05-02T07:15:13.881Z,12.40
2023-05-02T07:18:00.920Z,12.50
2023-05-02T07:20:47.659Z,12.47
2023-05-02T07:23:33.976Z,12.64
2023-05-02T07:26:21.110Z,12.89
2023-05-02T07:29:08.808Z,12.85
2023-05-02T07:31:55.077Z,12.72
2023-05-02T07:34:41.722Z,13.02
2023-05-02T07:37:34.658Z,13.25
2023-05-02T07:40:21.366Z,13.34
2023-05-02T07:43:09.813Z,13.62
2023-05-02T07:45:57.517Z,13.84
2023-05-02T07:48:44.900Z,14.03
2023-05-02T07:51:32.412Z,13.74
2023-05-02T07:54:23.163Z,13.80
2023-05-02T07:57:10.003Z,13.85
2023-05-02T08:00:00.007Z,13.93
2023-05-02T08:02:47.117Z,13.84
2023-05-02T08:05:33.622Z,13.71
2023-05-02T08:08:19.870Z,13.76
2023-05-02T08:11:06.924Z,13.76
2023-05-02T08:13:54.200Z,13.88
2023-05-02T08:16:40.891Z,14.10
2023-05-02T08:19:27.821Z,14.22
2023-05-02T08:22:13.887Z,14.17
2023-05-02T08:25:00.151Z,13.99
2023-05-02T08:27:46.843Z,14.30
2023-05-02T08:30:33.597Z,14.46
2023-05-02T08:33:20.164Z,14.54
2023-05-02T08:36:17.325Z,14.59
2023-05-02T08:39:03.881Z,14.36
2023-05-02T08:41:50.371Z,14.50
2023-05-02T08:44:37.414Z,14.38
2023-05-02T08:47:25.968Z,14.42
2023-05-02T08:50:12.818Z,14.94
2023-05-02T08:52:59.848Z,14.50
2023-05-02T08:55:48.680Z,14.85
2023-05-02T08:58:36.329Z,14.94
2023-05-02T09:01:24.229Z,15.36
2023-05-02T09:04:11.308Z,15.52
2023-05-02T09:06:57.943Z,15.75
2023-05-02T09:09:44.328Z,15.88
2023-05-02T09:12:30.690Z,16.10
2023-05-02T09:15:20.473Z,16.18
2023-05-02T09:18:07.289Z,16.38
2023-05-02T09:20:54.792Z,16.41
2023-05-02T09:23:46.132Z,16.70
2023-05-02T09:26:33.314Z,16.66
2023-05-02T09:29:20.741Z,15.90
2023-05-02T09:32:07.373Z,15.85
2023-05-02T09:35:06.767Z,16.09
2023-05-02T09:37:57.875Z,16.26
2023-05-02T09:40:57.566Z,16.47
2023-05-02T09:43:44.015Z,16.63
2023-05-02T09:46:40.599Z,16.57
2023-05-02T09:49:39.264Z,16.97
2023-05-02T09:52:25.792Z,17.73
2023-05-02T09:55:21.400Z,17.83
2023-05-02T09:58:19.850Z,17.79
2023-05-02T10:01:06.463Z,17.36
2023-05-02T10:03:53.766Z,17.52
2023-05-02T10:06:40.972Z,17.47
2023-05-02T10:09:28.253Z,17.93
2023-05-02T10:12:16.567Z,17.96
2023-05-02T10:15:04.513Z,17.95
2023-05-02T10:17:53.381Z,18.37
2023-05-02T10:20:47.831Z,18.75
2023-05-02T10:23:34.721Z,18.76
2023-05-02T10:26:23.336Z,18.09
2023-05-02T10:29:10.808Z,17.61
2023-05-02T10:31:58.660Z,17.68
2023-05-02T10:34:47.540Z,18.15
2023-05-02T10:37:37.593Z,18.64
2023-05-02T10:40:24.239Z,19.09
2023-05-02T10:43:16.134Z,19.02
2023-05-02T10:46:05.341Z,18.76
2023-05-02T10:49:08.590Z,18.07
2023-05-02T10:51:54.896Z,17.65
2023-05-02T10:54:41.264Z,17.69
2023-05-02T10:57:27.861Z,17.72
2023-05-02T11:00:25.515Z,17.79
2023-05-02T11:03:11.904Z,17.93
2023-05-02T11:06:06.717Z,18.12
2023-05-02T11:08:53.628Z,18.64
2023-05-02T11:11:42.009Z,18.95
2023-05-02T11:14:31.147Z,19.37
2023-05-02T11:17:18.450Z,19.49
2023-05-02T11:20:05.430Z,19.42
2023-05-02T11:22:52.067Z,19.54
2023-05-02T11:25:41.639Z,19.20
2023-05-02T11:28:36.927Z,18.42
2023-05-02T11:31:29.614Z,17.98
2023-05-02T11:34:16.250Z,17.86
2023-05-02T11:37:15.121Z,17.04
2023-05-02T11:40:14.569Z,17.29
2023-05-02T11:43:12.806Z,17.50
2023-05-02T11:46:00.395Z,18.09
2023-05-02T11:48:46.945Z,18.29
2023-05-02T11:51:35.552Z,18.18
2023-05-02T11:54:22.812Z,17.83
2023-05-02T11:57:09.492Z,17.51
2023-05-02T11:59:57.623Z,17.93
2023-05-02T12:02:46.053Z,18.05
2023-05-02T12:05:32.733Z,18.47
2023-05-02T12:08:29.915Z,18.79
2023-05-02T12:11:17.191Z,19.04
2023-05-02T12:14:04.628Z,18.65
2023-05-02T12:16:50.859Z,19.05
2023-05-02T12:19:39.046Z,18.90
2023-05-02T12:22:26.336Z,19.17
2023-05-02T12:25:13.303Z,19.55
2023-05-02T12:28:03.639Z,19.55
2023-05-02T12:30:51.187Z,19.35
2023-05-02T12:33:44.246Z,19.30
2023-05-02T12:36:30.747Z,18.92
2023-05-02T12:39:16.924Z,19.15
2023-05-02T12:42:10.833Z,19.49
2023-05-02T12:44:57.334Z,19.54
2023-05-02T12:47:46.611Z,19.10
2023-05-02T12:50:39.413Z,19.59
2023-05-02T12:53:43.677Z,20.01
2023-05-02T12:56:32.800Z,20.00
2023-05-02T12:59:26.624Z,20.27
2023-05-02T13:02:13.203Z,19.67
2023-05-02T13:04:59.789Z,19.62
2023-05-02T13:07:46.782Z,20.03
2023-05-02T13:10:33.223Z,19.68
2023-05-02T13:13:19.663Z,20.23
2023-05-02T13:16:06.835Z,19.51
2023-05-02T13:18:53.457Z,19.78
2023-05-02T13:21:39.961Z,20.41
2023-05-02T13:24:27.776Z,20.32
2023-05-02T13:27:14.256Z,20.38
2023-05-02T13:30:06.656Z,20.61
2023-05-02T13:32:57.391Z,20.33
2023-05-02T13:35:43.605Z,19.92
2023-05-02T13:38:30.624Z,20.16
2023-05-02T13:41:20.160Z,18.88
2023-05-02T13:44:06.635Z,18.35
2023-05-02T13:46:52.868Z,18.41
2023-05-02T13:49:39.562Z,18.28
2023-05-02T13:52:26.032Z,17.84
2023-05-02T13:55:12.663Z,17.97
2023-05-02T13:57:59.401Z,17.92
2023-05-02T14:00:46.010Z,17.75
2023-05-02T14:03:32.487Z,17.66
2023-05-02T14:06:19.167Z,17.81
2023-05-02T14:09:07.185Z,18.02
2023-05-02T14:11:53.668Z,18.66
2023-05-02T14:14:40.653Z,19.14
2023-05-02T14:17:27.296Z,18.89
2023-05-02T14:20:13.842Z,18.37
2023-05-02T14:23:00.140Z,18.40
2023-05-02T14:25:46.488Z,18.04
2023-05-02T14:28:32.791Z,18.25
2023-05-02T14:31:19.419Z,18.75
2023-05-02T14:34:08.721Z,18.53
2023-05-02T14:36:55.956Z,18.78
2023-05-02T14:39:44.634Z,18.85
2023-05-02T14:42:31.157Z,19.38
2023-05-02T14:45:17.509Z,19.19
2023-05-02T14:48:03.969Z,19.47
2023-05-02T14:50:50.598Z,19.65
2023-05-02T14:53:36.785Z,19.73
2023-05-02T14:56:23.319Z,19.29
2023-05-02T14:59:10.085Z,19.28
2023-05-02T15:01:56.958Z,19.30
2023-05-02T15:04:43.534Z,19.09
2023-05-02T15:07:30.094Z,18.98
2023-05-02T15:10:16.362Z,18.90
2023-05-02T15:13:03.888Z,18.75
2023-05-02T15:15:50.563Z,18.67
2023-05-02T15:18:36.805Z,18.75
2023-05-02T15:21:23.249Z,18.59
2023-05-02T15:24:10.522Z,18.21
2023-05-02T15:26:56.867Z,18.59
2023-05-02T15:29:43.231Z,18.67
2023-05-02T15:32:29.882Z,18.77
2023-05-02T15:35:16.075Z,18.53
2023-05-02T15:38:02.402Z,18.79
2023-05-02T15:40:59.750Z,18.61
2023-05-02T15:43:46.279Z,18.31
2023-05-02T15:46:32.891Z,18.06
2023-05-02T15:49:19.496Z,17.65
2023-05-02T15:52:05.825Z,17.74
2023-05-02T15:54:52.093Z,17.57
2023-05-02T15:57:40.562Z,17.56
2023-05-02T16:00:26.880Z,17.77
2023-05-02T16:03:13.885Z,17.79
2023-05-02T16:06:01.030Z,17.92
2023-05-02T16:08:47.369Z,18.08
2023-05-02T16:11:34.307Z,18.09
2023-05-02T16:14:24.023Z,18.14
2023-05-02T16:17:10.749Z,18.17
2023-05-02T16:19:58.183Z,17.95
2023-05-02T16:22:48.458Z,17.62
2023-05-02T16:25:34.874Z,17.30
2023-05-02T16:28:21.160Z,17.42
2023-05-02T16:31:10.935Z,17.41
2023-05-02T16:33:58.767Z,17.06
2023-05-02T16:36:46.704Z,16.99
2023-05-02T16:39:34.067Z,17.06
2023-05-02T16:42:20.695Z,16.95
2023-05-02T16:45:07.638Z,16.88
2023-05-02T16:47:53.884Z,16.66
2023-05-02T16:50:40.576Z,16.56
2023-05-02T16:53:27.581Z,16.72
2023-05-02T16:56:13.964Z,16.48
2023-05-02T16:59:00.669Z,16.52
2023-05-02T17:01:47.160Z,16.65
2023-05-02T17:04:33.771Z,16.40
2023-05-02T17:07:20.385Z,16.66
2023-05-02T17:10:07.466Z,16.24
2023-05-02T17:12:55.954Z,16.55
2023-05-02T17:15:42.740Z,16.57
2023-05-02T17:18:29.116Z,16.56
2023-05-02T17:21:15.471Z,16.30
2023-05-02T17:24:01.965Z,16.29
2023-05-02T17:26:49.097Z,16.24
2023-05-02T17:29:35.539Z,16.09
2023-05-02T17:32:21.834Z,16.22
2023-05-02T17:35:08.646Z,15.99
2023-05-02T17:37:55.382Z,16.15
2023-05-02T17:40:41.542Z,16.86
2023-05-02T17:43:27.818Z,17.54
2023-05-02T17:46:15.356Z,17.36
2023-05-02T17:49:01.884Z,16.75
2023-05-02T17:51:48.136Z,16.09
2023-05-02T17:54:34.406Z,15.78
2023-05-02T17:57:21.384Z,15.57
2023-05-02T18:00:08.556Z,15.03
2023-05-02T18:02:54.776Z,15.18
2023-05-02T18:05:43.942Z,15.18
2023-05-02T18:08:33.485Z,14.77
2023-05-02T18:11:20.930Z,14.78
2023-05-02T18:14:07.298Z,14.73
2023-05-02T18:16:53.541Z,14.58
2023-05-02T18:19:40.115Z,14.46
2023-05-02T18:22:27.332Z,14.33
2023-05-02T18:25:13.638Z,14.18
2023-05-02T18:28:00.329Z,14.15
2023-05-02T18:30:46.656Z,14.14
2023-05-02T18:33:33.039Z,13.93
2023-05-02T18:36:25.092Z,13.84
2023-05-02T18:39:11.651Z,13.38
2023-05-02T18:41:58.522Z,13.17
2023-05-02T18:44:44.735Z,12.97
2023-05-02T18:47:31.575Z,12.61
2023-05-02T18:50:18.286Z,12.47
2023-05-02T18:53:04.518Z,12.38
2023-05-02T18:55:51.274Z,12.17
2023-05-02T18:58:37.605Z,11.99
2023-05-02T19:01:24.570Z,11.94
2023-05-02T19:04:10.866Z,11.70
2023-05-02T19:06:57.162Z,11.89
2023-05-02T19:09:43.881Z,11.70
2023-05-02T19:12:30.928Z,11.75
2023-05-02T19:15:17.595Z,11.67
2023-05-02T19:18:03.977Z,11.41
2023-05-02T19:20:50.629Z,11.35
2023-05-02T19:23:37.581Z,11.34
2023-05-02T19:26:24.216Z,11.09
2023-05-02T19:29:10.718Z,10.98
2023-05-02T19:31:56.962Z,10.86
2023-05-02T19:34:43.509Z,10.82
2023-05-02T19:37:30.145Z,10.62
2023-05-02T19:40:16.769Z,10.57
2023-05-02T19:43:03.358Z,10.56
2023-05-02T19:45:50.166Z,10.36
2023-05-02T19:48:37.124Z,10.23
2023-05-02T19:51:25.725Z,10.03
2023-05-02T19:54:12.690Z,10.05
2023-05-02T19:56:59.352Z,10.05
2023-05-02T19:59:45.406Z,9.98
2023-05-02T20:02:33.658Z,9.89
2023-05-02T20:05:20.275Z,10.06
2023-05-02T20:08:06.394Z,10.04
2023-05-02T20:10:53.832Z,10.03
2023-05-02T20:13:40.456Z,10.10
2023-05-02T20:16:27.354Z,9.87
2023-05-02T20:19:14.035Z,9.68
2023-05-02T20:22:00.331Z,9.74
2023-05-02T20:24:46.534Z,9.69
2023-05-02T20:27:32.827Z,9.58
2023-05-02T20:30:19.861Z,9.25
2023-05-02T20:33:15.377Z,9.43
2023-05-02T20:36:03.052Z,9.35
2023-05-02T20:38:49.173Z,9.40
2023-05-02T20:41:36.419Z,9.29
2023-05-02T20:44:22.806Z,9.23
2023-05-02T20:47:09.231Z,8.84
2023-05-02T20:49:56.734Z,9.46
2023-05-02T20:52:43.301Z,9.35
2023-05-02T20:55:29.852Z,9.11
2023-05-02T20:58:16.416Z,8.56
2023-05-02T21:01:02.802Z,8.89
2023-05-02T21:03:49.364Z,8.99
2023-05-02T21:06:35.960Z,8.80
2023-05-02T21:09:23.287Z,8.67
2023-05-02T21:12:09.841Z,8.70
2023-05-02T21:14:56.107Z,8.59
2023-05-02T21:17:42.557Z,8.53
2023-05-02T21:20:29.050Z,8.49
2023-05-02T21:23:15.693Z,8.36
2023-05-02T21:26:02.023Z,8.59
2023-05-02T21:28:48.158Z,8.27
2023-05-02T21:31:34.441Z,8.80
2023-05-02T21:34:20.944Z,8.39
2023-05-02T21:37:07.367Z,8.42
2023-05-02T21:39:53.678Z,8.36
2023-05-02T21:42:40.020Z,8.37
2023-05-02T21:45:26.729Z,8.21
2023-05-02T21:48:14.158Z,8.13
2023-05-02T21:51:00.513Z,8.17
2023-05-02T21:53:46.752Z,8.36
2023-05-02T21:56:33.258Z,8.50
2023-05-02T21:59:19.386Z,8.68
2023-05-02T22:02:08.782Z,8.56
2023-05-02T22:04:59.656Z,8.74
2023-05-02T22:07:49.082Z,8.35
2023-05-02T22:10:38.592Z,8.76
2023-05-02T22:13:25.366Z,8.58
2023-05-02T22:16:11.919Z,8.38
2023-05-02T22:18:58.358Z,8.38
2023-05-02T22:21:44.949Z,8.16
2023-05-02T22:24:34.710Z,8.45
2023-05-02T22:27:21.068Z,8.33
2023-05-02T22:30:09.482Z,8.18
2023-05-02T22:32:56.134Z,8.17
2023-05-02T22:35:42.612Z,7.97
2023-05-02T22:38:31.105Z,7.83
2023-05-02T22:41:17.377Z,7.87
2023-05-02T22:44:03.822Z,7.29
2023-05-02T22:46:53.478Z,7.73
2023-05-02T22:49:44.578Z,7.67
2023-05-02T22:52:31.438Z,7.31
2023-05-02T22:55:17.827Z,7.84
2023-05-02T22:58:07.339Z,7.57
2023-05-02T23:00:56.374Z,7.47
2023-05-02T23:03:42.657Z,7.52
2023-05-02T23:06:29.228Z,7.54
2023-05-02T23:09:18.718Z,7.50
2023-05-02T23:12:05.643Z,7.34
2023-05-02T23:14:51.872Z,7.32
2023-05-02T23:17:40.083Z,7.23
2023-05-02T23:20:31.028Z,7.30
2023-05-02T23:23:17.489Z,7.22
2023-05-02T23:26:04.049Z,7.11
2023-05-02T23:28:50.663Z,7.16
2023-05-02T23:31:37.132Z,7.15
2023-05-02T23:34:23.979Z,6.61
2023-05-02T23:37:11.469Z,6.83
2023-05-02T23:39:58.516Z,6.73
2023-05-02T23:42:45.830Z,6.76
2023-05-02T23:45:35.136Z,6.71
2023-05-02T23:48:21.646Z,6.57
2023-05-02T23:51:08.034Z,6.65
2023-05-02T23:53:54.902Z,6.78
2023-05-02T23:56:41.523Z,6.81
2023-05-02T23:59:28.031Z,6.89
